createdAt,value
2023-03-13T00:01:21.440Z,59.63
2023-03-13T00:03:48.928Z,59.03
2023-03-13T00:06:16.509Z,59.18
2023-03-13T00:08:45.067Z,59.49
2023-03-13T00:11:13.759Z,59.93
2023-03-13T00:13:41.162Z,59.58
2023-03-13T00:16:14.042Z,59.60
2023-03-13T00:18:47.378Z,59.97
2023-03-13T00:21:14.605Z,60.36
2023-03-13T00:23:41.526Z,60.27
2023-03-13T00:26:10.867Z,59.78
2023-03-13T00:28:39.603Z,59.67
2023-03-13T00:31:18.458Z,59.44
2023-03-13T00:33:47.871Z,59.79
2023-03-13T00:36:19.336Z,59.95
2023-03-13T00:38:46.874Z,59.99
2023-03-13T00:41:22.714Z,60.02
2023-03-13T00:43:50.655Z,59.65
2023-03-13T00:46:20.662Z,60.00
2023-03-13T00:48:48.244Z,60.58
2023-03-13T00:51:16.843Z,60.71
2023-03-13T00:53:45.103Z,60.65
2023-03-13T00:56:14.537Z,60.39
2023-03-13T00:58:43.133Z,60.44
2023-03-13T01:01:18.782Z,61.19
2023-03-13T01:03:48.846Z,60.29
2023-03-13T01:06:18.495Z,60.98
2023-03-13T01:08:45.691Z,62.34
2023-03-13T01:11:18.587Z,62.58
2023-03-13T01:13:45.960Z,63.52
2023-03-13T01:16:19.412Z,62.89
2023-03-13T01:18:52.549Z,62.26
2023-03-13T01:21:21.287Z,61.91
2023-03-13T01:23:49.815Z,64.20
2023-03-13T01:26:16.930Z,62.90
2023-03-13T01:28:44.058Z,62.22
2023-03-13T01:31:13.173Z,61.59
2023-03-13T01:33:40.263Z,62.13
2023-03-13T01:36:08.898Z,61.95
2023-03-13T01:38:36.562Z,61.60
2023-03-13T01:41:07.094Z,61.91
2023-03-13T01:43:36.695Z,61.67
2023-03-13T01:46:20.119Z,61.31
2023-03-13T01:49:00.682Z,61.58
2023-03-13T01:51:35.424Z,61.67
2023-03-13T01:54:11.876Z,61.79
2023-03-13T01:56:53.376Z,61.68
2023-03-13T01:59:27.192Z,62.20
2023-03-13T02:01:57.650Z,61.74
2023-03-13T02:04:27.508Z,61.54
2023-03-13T02:07:02.647Z,61.47
2023-03-13T02:09:32.112Z,61.60
2023-03-13T02:12:07.431Z,61.72
2023-03-13T02:14:37.711Z,61.74
2023-03-13T02:17:05.591Z,62.09
2023-03-13T02:19:49.156Z,61.85
2023-03-13T02:22:41.579Z,62.08
2023-03-13T02:25:11.858Z,61.82
2023-03-13T02:27:39.896Z,61.73
2023-03-13T02:30:09.613Z,62.30
2023-03-13T02:32:37.498Z,62.17
2023-03-13T02:35:19.126Z,62.48
2023-03-13T02:37:51.238Z,62.15
2023-03-13T02:40:29.487Z,62.57
2023-03-13T02:43:00.540Z,62.48
2023-03-13T02:45:28.829Z,62.01
2023-03-13T02:47:55.724Z,62.60
2023-03-13T02:50:23.916Z,62.12
2023-03-13T02:52:56.991Z,62.93
2023-03-13T02:55:30.153Z,61.90
2023-03-13T02:57:57.293Z,61.80
2023-03-13T03:00:27.792Z,61.89
2023-03-13T03:02:58.452Z,62.19
2023-03-13T03:05:25.380Z,62.11
2023-03-13T03:07:52.558Z,61.66
2023-03-13T03:10:19.776Z,63.22
2023-03-13T03:12:46.734Z,62.92
2023-03-13T03:15:14.527Z,63.07
2023-03-13T03:17:45.110Z,63.01
2023-03-13T03:20:12.648Z,62.95
2023-03-13T03:22:42.818Z,62.28
2023-03-13T03:25:10.275Z,62.27
2023-03-13T03:27:37.313Z,61.92
2023-03-13T03:30:08.058Z,62.04
2023-03-13T03:32:40.616Z,62.02
2023-03-13T03:35:08.019Z,61.91
2023-03-13T03:37:35.313Z,63.04
2023-03-13T03:40:06.076Z,62.20
2023-03-13T03:42:33.820Z,62.30
2023-03-13T03:45:00.757Z,62.18
2023-03-13T03:47:27.843Z,61.86
2023-03-13T03:49:54.904Z,62.42
2023-03-13T03:52:22.270Z,61.93
2023-03-13T03:54:49.214Z,62.45
2023-03-13T03:57:17.811Z,62.59
2023-03-13T03:59:46.118Z,61.75
2023-03-13T04:02:13.178Z,61.85
2023-03-13T04:04:41.879Z,61.95
2023-03-13T04:07:12.729Z,62.29
2023-03-13T04:09:40.640Z,62.19
2023-03-13T04:12:09.568Z,62.30
2023-03-13T04:14:42.059Z,61.77
2023-03-13T04:17:11.598Z,61.88
2023-03-13T04:19:39.213Z,61.51
2023-03-13T04:22:07.022Z,61.84
2023-03-13T04:24:34.520Z,61.88
2023-03-13T04:27:03.721Z,61.43
2023-03-13T04:29:31.108Z,61.85
2023-03-13T04:32:24.539Z,61.70
2023-03-13T04:35:00.689Z,62.38
2023-03-13T04:37:43.770Z,61.65
2023-03-13T04:40:47.214Z,61.53
2023-03-13T04:43:43.387Z,61.67
2023-03-13T04:46:32.809Z,61.27
2023-03-13T04:49:35.343Z,62.34
2023-03-13T04:52:05.556Z,62.51
2023-03-13T04:54:51.263Z,61.92
2023-03-13T04:57:37.000Z,62.30
2023-03-13T05:00:24.237Z,61.84
2023-03-13T05:03:10.262Z,61.38
2023-03-13T05:06:00.099Z,61.94
2023-03-13T05:08:53.349Z,61.56
2023-03-13T05:11:46.448Z,61.70
2023-03-13T05:14:44.880Z,61.45
2023-03-13T05:17:35.467Z,61.71
2023-03-13T05:20:34.782Z,61.48
2023-03-13T05:23:10.680Z,61.56
2023-03-13T05:25:50.359Z,61.65
2023-03-13T05:28:37.529Z,61.23
2023-03-13T05:31:39.704Z,61.50
2023-03-13T05:34:21.219Z,61.51
2023-03-13T05:37:06.894Z,61.99
2023-03-13T05:39:52.240Z,61.83
2023-03-13T05:42:49.108Z,61.67
2023-03-13T05:45:32.466Z,61.19
2023-03-13T05:48:20.422Z,61.51
2023-03-13T05:51:19.539Z,61.80
2023-03-13T05:54:06.545Z,61.39
2023-03-13T05:57:02.670Z,61.88
2023-03-13T06:00:00.594Z,61.59
2023-03-13T06:02:46.475Z,61.48
2023-03-13T06:05:20.693Z,61.50
2023-03-13T06:07:50.399Z,61.41
2023-03-13T06:10:17.587Z,61.49
2023-03-13T06:12:44.837Z,61.50
2023-03-13T06:15:13.592Z,60.65
2023-03-13T06:18:15.793Z,60.26
2023-03-13T06:20:42.743Z,59.73
2023-03-13T06:23:09.749Z,59.68
2023-03-13T06:25:36.776Z,58.73
2023-03-13T06:28:03.672Z,57.62
2023-03-13T06:30:30.656Z,56.82
2023-03-13T06:32:59.115Z,55.95
2023-03-13T06:35:26.178Z,55.20
2023-03-13T06:37:54.264Z,54.07
2023-03-13T06:40:21.247Z,52.95
2023-03-13T06:42:48.127Z,51.79
2023-03-13T06:45:15.131Z,50.53
2023-03-13T06:47:42.356Z,50.32
2023-03-13T06:50:11.163Z,49.68
2023-03-13T06:52:44.042Z,49.43
2023-03-13T06:55:13.839Z,49.55
2023-03-13T06:57:41.197Z,49.43
2023-03-13T07:00:11.577Z,49.57
2023-03-13T07:02:38.562Z,50.09
2023-03-13T07:05:06.125Z,49.79
2023-03-13T07:07:35.829Z,50.10
2023-03-13T07:10:02.881Z,50.26
2023-03-13T07:12:29.932Z,50.60
2023-03-13T07:14:56.916Z,50.56
2023-03-13T07:17:23.871Z,50.58
2023-03-13T07:19:50.910Z,50.87
2023-03-13T07:22:17.847Z,50.90
2023-03-13T07:24:45.009Z,50.54
2023-03-13T07:27:12.058Z,50.39
2023-03-13T07:29:38.985Z,50.39
2023-03-13T07:32:06.529Z,49.84
2023-03-13T07:34:33.596Z,48.97
2023-03-13T07:37:00.489Z,48.43
2023-03-13T07:39:27.558Z,48.41
2023-03-13T07:41:54.525Z,48.06
2023-03-13T07:44:21.515Z,48.29
2023-03-13T07:46:50.238Z,48.08
2023-03-13T07:49:17.195Z,48.21
2023-03-13T07:51:44.736Z,48.27
2023-03-13T07:54:12.276Z,48.39
2023-03-13T07:56:39.573Z,48.48
2023-03-13T07:59:06.976Z,48.95
2023-03-13T08:01:34.035Z,49.18
2023-03-13T08:04:06.483Z,49.39
2023-03-13T08:06:40.230Z,49.47
2023-03-13T08:09:07.259Z,49.93
2023-03-13T08:11:34.197Z,49.95
2023-03-13T08:14:01.184Z,49.94
2023-03-13T08:16:30.944Z,49.29
2023-03-13T08:18:59.347Z,48.39
2023-03-13T08:21:29.108Z,46.20
2023-03-13T08:23:58.219Z,44.39
2023-03-13T08:26:29.684Z,42.33
2023-03-13T08:28:59.267Z,40.97
2023-03-13T08:31:38.194Z,38.99
2023-03-13T08:34:05.345Z,37.39
2023-03-13T08:36:34.926Z,35.62
2023-03-13T08:39:08.294Z,33.91
2023-03-13T08:41:36.897Z,32.47
2023-03-13T08:44:07.983Z,32.03
2023-03-13T08:46:36.524Z,30.99
2023-03-13T08:49:06.114Z,30.00
2023-03-13T08:51:34.189Z,29.12
2023-03-13T08:54:02.360Z,28.68
2023-03-13T08:56:33.119Z,27.32
2023-03-13T08:59:02.198Z,27.13
2023-03-13T09:01:33.196Z,26.54
2023-03-13T09:04:04.010Z,26.76
2023-03-13T09:06:36.013Z,26.34
2023-03-13T09:09:03.672Z,25.15
2023-03-13T09:11:30.602Z,25.63
2023-03-13T09:13:59.451Z,24.66
2023-03-13T09:16:31.372Z,23.73
2023-03-13T09:18:59.402Z,23.65
2023-03-13T09:21:32.259Z,22.87
2023-03-13T09:23:59.405Z,22.74
2023-03-13T09:26:27.910Z,23.14
2023-03-13T09:28:55.490Z,22.78
2023-03-13T09:31:33.178Z,21.95
2023-03-13T09:34:00.841Z,22.13
2023-03-13T09:36:28.289Z,21.68
2023-03-13T09:38:57.963Z,21.48
2023-03-13T09:41:43.216Z,21.43
2023-03-13T09:44:23.432Z,20.76
2023-03-13T09:46:53.502Z,20.60
2023-03-13T09:49:23.327Z,21.10
2023-03-13T09:51:56.606Z,20.75
2023-03-13T09:54:34.899Z,21.15
2023-03-13T09:57:15.578Z,20.83
2023-03-13T09:59:52.993Z,21.16
2023-03-13T10:02:23.726Z,21.00
2023-03-13T10:04:58.452Z,21.02
2023-03-13T10:07:25.374Z,21.63
2023-03-13T10:09:53.757Z,22.74
2023-03-13T10:12:29.029Z,23.52
2023-03-13T10:15:18.051Z,23.73
2023-03-13T10:17:45.356Z,24.45
2023-03-13T10:20:15.447Z,24.43
2023-03-13T10:22:46.617Z,24.67
2023-03-13T10:25:27.521Z,23.56
2023-03-13T10:27:55.602Z,23.42
2023-03-13T10:30:27.272Z,22.83
2023-03-13T10:32:59.506Z,21.32
2023-03-13T10:35:35.083Z,21.30
2023-03-13T10:38:24.035Z,21.73
2023-03-13T10:40:59.244Z,21.55
2023-03-13T10:43:28.845Z,21.64
2023-03-13T10:45:55.831Z,21.57
2023-03-13T10:48:30.579Z,22.24
2023-03-13T10:50:57.884Z,22.15
2023-03-13T10:53:30.651Z,21.17
2023-03-13T10:56:15.210Z,23.04
2023-03-13T10:58:48.436Z,22.63
2023-03-13T11:01:34.212Z,22.96
2023-03-13T11:04:29.715Z,22.29
2023-03-13T11:07:16.479Z,22.38
2023-03-13T11:09:43.968Z,23.08
2023-03-13T11:12:21.058Z,23.53
2023-03-13T11:14:48.222Z,24.39
2023-03-13T11:17:30.664Z,24.24
2023-03-13T11:20:02.873Z,25.02
2023-03-13T11:22:51.124Z,25.48
2023-03-13T11:25:46.888Z,24.98
2023-03-13T11:28:13.677Z,25.72
2023-03-13T11:31:11.541Z,25.73
2023-03-13T11:33:57.637Z,27.90
2023-03-13T11:36:40.800Z,29.77
2023-03-13T11:39:19.956Z,30.71
2023-03-13T11:42:00.940Z,34.84
2023-03-13T11:44:59.447Z,34.99
2023-03-13T11:47:50.959Z,36.38
2023-03-13T11:50:26.746Z,37.91
2023-03-13T11:53:20.161Z,38.33
2023-03-13T11:56:23.145Z,40.87
2023-03-13T11:59:14.888Z,43.32
2023-03-13T12:02:11.510Z,43.84
2023-03-13T12:04:46.912Z,43.98
2023-03-13T12:07:32.806Z,45.83
2023-03-13T12:10:09.880Z,44.99
2023-03-13T12:12:54.001Z,46.26
2023-03-13T12:15:22.937Z,47.14
2023-03-13T12:17:49.769Z,47.02
2023-03-13T12:20:28.146Z,46.78
2023-03-13T12:23:12.466Z,48.01
2023-03-13T12:25:48.114Z,47.42
2023-03-13T12:28:37.405Z,46.84
2023-03-13T12:31:11.746Z,46.39
2023-03-13T12:33:46.673Z,47.95
2023-03-13T12:36:26.742Z,47.50
2023-03-13T12:39:19.894Z,49.12
2023-03-13T12:42:11.673Z,48.28
2023-03-13T12:44:40.259Z,47.50
2023-03-13T12:47:16.333Z,48.13
2023-03-13T12:50:15.070Z,49.47
2023-03-13T12:52:58.256Z,48.69
2023-03-13T12:55:46.473Z,49.28
2023-03-13T12:58:31.631Z,48.79
2023-03-13T13:01:04.547Z,49.35
2023-03-13T13:03:45.065Z,49.41
2023-03-13T13:06:15.418Z,49.31
2023-03-13T13:09:06.954Z,49.89
2023-03-13T13:11:33.911Z,52.20
2023-03-13T13:14:02.076Z,50.79
2023-03-13T13:16:30.662Z,50.95
2023-03-13T13:19:23.035Z,51.18
2023-03-13T13:22:27.517Z,52.27
2023-03-13T13:25:00.573Z,51.15
2023-03-13T13:27:34.648Z,51.25
2023-03-13T13:30:25.520Z,50.35
2023-03-13T13:32:55.649Z,50.58
2023-03-13T13:35:35.680Z,50.91
2023-03-13T13:38:20.619Z,51.16
2023-03-13T13:41:07.567Z,51.87
2023-03-13T13:43:37.193Z,51.53
2023-03-13T13:46:18.968Z,51.68
2023-03-13T13:48:45.935Z,51.22
2023-03-13T13:51:14.208Z,50.98
2023-03-13T13:53:59.901Z,51.16
2023-03-13T13:56:36.320Z,51.17
2023-03-13T13:59:06.289Z,51.59
2023-03-13T14:01:34.442Z,50.60
2023-03-13T14:04:20.206Z,51.94
2023-03-13T14:06:50.894Z,51.27
2023-03-13T14:09:30.851Z,51.49
2023-03-13T14:11:58.109Z,50.96
2023-03-13T14:14:25.180Z,50.73
2023-03-13T14:16:57.141Z,50.26
2023-03-13T14:19:43.417Z,50.85
2023-03-13T14:22:14.714Z,51.89
2023-03-13T14:24:41.640Z,51.16
2023-03-13T14:27:18.798Z,51.46
2023-03-13T14:30:09.234Z,50.97
2023-03-13T14:32:37.509Z,50.83
2023-03-13T14:35:06.527Z,51.30
2023-03-13T14:37:41.306Z,51.51
2023-03-13T14:40:29.846Z,51.68
2023-03-13T14:43:02.573Z,50.82
2023-03-13T14:45:39.907Z,51.52
2023-03-13T14:48:23.666Z,50.45
2023-03-13T14:51:02.356Z,49.97
2023-03-13T14:53:39.536Z,49.71
2023-03-13T14:56:21.014Z,49.84
2023-03-13T14:58:51.681Z,49.36
2023-03-13T15:01:27.267Z,49.15
2023-03-13T15:03:54.345Z,50.02
2023-03-13T15:06:23.987Z,49.91
2023-03-13T15:09:15.592Z,50.17
2023-03-13T15:11:54.841Z,49.64
2023-03-13T15:14:43.729Z,50.03
2023-03-13T15:17:12.789Z,50.31
2023-03-13T15:19:39.682Z,50.34
2023-03-13T15:22:12.449Z,50.67
2023-03-13T15:24:39.333Z,50.31
2023-03-13T15:27:16.265Z,50.71
2023-03-13T15:29:44.009Z,50.34
2023-03-13T15:32:27.762Z,50.77
2023-03-13T15:34:58.691Z,51.17
2023-03-13T15:37:30.397Z,50.71
2023-03-13T15:39:58.513Z,50.81
2023-03-13T15:42:25.783Z,50.80
2023-03-13T15:44:52.774Z,50.72
2023-03-13T15:47:21.961Z,50.87
2023-03-13T15:49:49.023Z,50.67
2023-03-13T15:52:25.406Z,50.45
2023-03-13T15:54:52.330Z,50.92
2023-03-13T15:57:24.010Z,51.70
2023-03-13T15:59:52.585Z,52.21
2023-03-13T16:02:24.254Z,51.60
2023-03-13T16:04:51.693Z,51.32
2023-03-13T16:07:21.216Z,51.21
2023-03-13T16:09:49.077Z,50.92
2023-03-13T16:12:16.190Z,50.76
2023-03-13T16:14:43.096Z,50.94
2023-03-13T16:17:15.017Z,50.74
2023-03-13T16:19:42.886Z,50.92
2023-03-13T16:22:10.353Z,50.84
2023-03-13T16:24:37.316Z,50.69
2023-03-13T16:27:14.457Z,50.78
2023-03-13T16:30:06.436Z,50.72
2023-03-13T16:32:33.554Z,50.72
2023-03-13T16:35:00.536Z,50.98
2023-03-13T16:37:27.489Z,50.93
2023-03-13T16:39:54.359Z,51.11
2023-03-13T16:42:21.355Z,51.55
2023-03-13T16:44:48.270Z,51.80
2023-03-13T16:47:27.660Z,51.96
2023-03-13T16:49:55.380Z,51.85
2023-03-13T16:52:22.325Z,51.87
2023-03-13T16:54:50.175Z,51.71
2023-03-13T16:57:24.232Z,51.84
2023-03-13T16:59:51.606Z,51.89
2023-03-13T17:02:20.788Z,51.61
2023-03-13T17:04:48.521Z,51.48
2023-03-13T17:07:23.484Z,51.94
2023-03-13T17:09:51.580Z,51.89
2023-03-13T17:12:19.572Z,51.70
2023-03-13T17:14:47.304Z,52.30
2023-03-13T17:17:19.290Z,52.52
2023-03-13T17:19:49.710Z,52.13
2023-03-13T17:22:17.940Z,52.14
2023-03-13T17:24:45.005Z,52.24
2023-03-13T17:27:16.889Z,51.97
2023-03-13T17:29:45.023Z,51.74
2023-03-13T17:32:13.697Z,52.21
2023-03-13T17:34:44.482Z,51.74
2023-03-13T17:37:20.667Z,52.00
2023-03-13T17:39:51.549Z,51.71
2023-03-13T17:42:19.320Z,51.62
2023-03-13T17:44:46.315Z,51.70
2023-03-13T17:47:18.237Z,52.03
2023-03-13T17:49:45.921Z,51.80
2023-03-13T17:52:15.152Z,51.93
2023-03-13T17:54:44.113Z,51.76
2023-03-13T17:57:17.506Z,52.14
2023-03-13T17:59:45.236Z,51.94
2023-03-13T18:02:14.513Z,52.61
2023-03-13T18:04:41.870Z,52.22
2023-03-13T18:07:23.120Z,52.68
2023-03-13T18:09:50.175Z,52.88
2023-03-13T18:12:17.358Z,53.07
2023-03-13T18:14:44.524Z,53.40
2023-03-13T18:17:17.658Z,53.88
2023-03-13T18:19:45.447Z,53.89
2023-03-13T18:22:17.905Z,53.73
2023-03-13T18:24:45.340Z,54.59
2023-03-13T18:27:20.303Z,54.04
2023-03-13T18:29:49.247Z,56.06
2023-03-13T18:32:18.464Z,56.73
2023-03-13T18:34:45.876Z,58.23
2023-03-13T18:37:33.660Z,61.66
2023-03-13T18:40:01.081Z,61.07
2023-03-13T18:42:28.118Z,61.65
2023-03-13T18:44:55.231Z,62.63
2023-03-13T18:47:25.177Z,62.28
2023-03-13T18:49:52.173Z,62.07
2023-03-13T18:52:19.104Z,62.56
2023-03-13T18:54:46.046Z,62.68
2023-03-13T18:57:19.324Z,63.37
2023-03-13T18:59:46.819Z,63.00
2023-03-13T19:02:15.998Z,62.58
2023-03-13T19:04:44.275Z,63.16
2023-03-13T19:07:14.937Z,63.10
2023-03-13T19:09:43.949Z,63.45
2023-03-13T19:12:12.414Z,63.55
2023-03-13T19:14:39.469Z,62.37
2023-03-13T19:17:14.633Z,62.26
2023-03-13T19:19:41.638Z,60.81
2023-03-13T19:22:13.582Z,60.77
2023-03-13T19:24:40.660Z,60.34
2023-03-13T19:27:07.794Z,60.59
2023-03-13T19:29:36.619Z,60.97
2023-03-13T19:32:07.755Z,60.09
2023-03-13T19:34:34.699Z,61.20
2023-03-13T19:37:01.731Z,60.51
2023-03-13T19:39:28.844Z,60.91
2023-03-13T19:41:57.712Z,60.46
2023-03-13T19:44:25.569Z,60.16
2023-03-13T19:46:54.700Z,59.98
2023-03-13T19:49:23.336Z,60.18
2023-03-13T19:51:50.294Z,59.89
2023-03-13T19:54:17.211Z,59.79
2023-03-13T19:56:46.826Z,60.81
2023-03-13T19:59:17.584Z,60.22
2023-03-13T20:01:44.977Z,60.68
2023-03-13T20:04:12.795Z,60.71
2023-03-13T20:06:42.923Z,60.82
2023-03-13T20:09:12.525Z,60.79
2023-03-13T20:11:39.506Z,60.49
2023-03-13T20:14:06.759Z,61.22
2023-03-13T20:16:35.177Z,60.25
2023-03-13T20:19:03.061Z,60.86
2023-03-13T20:21:41.210Z,60.89
2023-03-13T20:24:09.488Z,60.37
2023-03-13T20:26:36.408Z,61.21
2023-03-13T20:29:03.440Z,60.01
2023-03-13T20:31:31.660Z,60.31
2023-03-13T20:34:00.037Z,61.42
2023-03-13T20:36:27.690Z,60.55
2023-03-13T20:38:54.619Z,60.99
2023-03-13T20:41:25.229Z,60.12
2023-03-13T20:43:53.292Z,60.62
2023-03-13T20:46:21.064Z,60.86
2023-03-13T20:48:48.714Z,60.91
2023-03-13T20:51:15.869Z,61.35
2023-03-13T20:53:43.099Z,60.26
2023-03-13T20:56:11.003Z,61.23
2023-03-13T20:58:38.774Z,60.43
2023-03-13T21:01:07.778Z,60.70
2023-03-13T21:03:36.015Z,59.81
2023-03-13T21:06:19.142Z,61.21
2023-03-13T21:08:47.062Z,60.69
2023-03-13T21:11:16.684Z,59.92
2023-03-13T21:13:43.824Z,59.78
2023-03-13T21:16:11.044Z,59.80
2023-03-13T21:18:37.977Z,59.51
2023-03-13T21:21:07.221Z,60.40
2023-03-13T21:23:34.916Z,61.04
2023-03-13T21:26:01.898Z,60.34
2023-03-13T21:28:28.880Z,60.15
2023-03-13T21:30:56.874Z,59.10
2023-03-13T21:33:24.220Z,60.31
2023-03-13T21:35:51.684Z,61.22
2023-03-13T21:38:18.839Z,61.03
2023-03-13T21:40:45.759Z,61.04
2023-03-13T21:43:12.800Z,60.91
2023-03-13T21:45:39.720Z,62.04
2023-03-13T21:48:07.025Z,62.09
2023-03-13T21:50:33.995Z,62.29
2023-03-13T21:53:01.189Z,62.57
2023-03-13T21:55:28.156Z,62.73
2023-03-13T21:57:55.172Z,62.63
2023-03-13T22:00:22.428Z,62.56
2023-03-13T22:02:49.756Z,62.48
2023-03-13T22:05:16.812Z,62.81
2023-03-13T22:07:45.384Z,61.36
2023-03-13T22:10:12.335Z,61.06
2023-03-13T22:12:39.351Z,57.27
2023-03-13T22:15:07.168Z,53.27
2023-03-13T22:17:34.165Z,48.15
2023-03-13T22:20:01.194Z,45.43
2023-03-13T22:22:28.101Z,44.76
2023-03-13T22:24:55.028Z,43.13
2023-03-13T22:27:24.207Z,43.49
2023-03-13T22:29:51.354Z,41.78
2023-03-13T22:32:19.070Z,40.93
2023-03-13T22:34:48.327Z,38.75
2023-03-13T22:37:16.073Z,37.46
2023-03-13T22:39:42.989Z,37.57
2023-03-13T22:42:10.013Z,36.52
2023-03-13T22:44:36.936Z,35.30
2023-03-13T22:47:04.632Z,36.15
2023-03-13T22:49:31.719Z,35.41
2023-03-13T22:51:59.503Z,34.72
2023-03-13T22:54:26.894Z,35.39
2023-03-13T22:56:54.290Z,35.08
2023-03-13T22:59:21.295Z,34.34
2023-03-13T23:01:52.021Z,34.15
2023-03-13T23:04:19.019Z,34.86
2023-03-13T23:06:46.047Z,33.98
2023-03-13T23:09:13.107Z,34.40
2023-03-13T23:11:40.166Z,33.41
2023-03-13T23:14:07.686Z,33.13
2023-03-13T23:16:34.718Z,32.70
2023-03-13T23:19:02.828Z,32.14
2023-03-13T23:21:29.806Z,31.76
2023-03-13T23:23:56.972Z,32.37
2023-03-13T23:26:23.991Z,30.84
2023-03-13T23:28:51.033Z,31.51
2023-03-13T23:31:21.115Z,31.05
2023-03-13T23:33:48.792Z,31.56
2023-03-13T23:36:18.697Z,31.08
2023-03-13T23:38:49.999Z,30.11
2023-03-13T23:41:17.430Z,30.15
2023-03-13T23:43:44.567Z,30.12
2023-03-13T23:46:20.181Z,29.42
2023-03-13T23:48:47.123Z,30.34
2023-03-13T23:51:14.277Z,30.08
2023-03-13T23:53:42.692Z,30.53
2023-03-13T23:56:11.006Z,30.93
2023-03-13T23:58:38.396Z,30.63
